Wainwright Airport Wainwright US
ICAO: PAWI
IATA:
Category: Medium
Scheduled Services:

Elevation: 41 ft
TransAlt. 18000 ft.

Airport Communications:
ASOS:132.25
ANCHORAGE CNTR:135.3
CTAF:122.8
FAIRBANKS RDO:122.5

PAWI Zoom In..

Runways:

(A) RW 05 length 4494 ft width 110 ft
---- / hdg 50

(B) RW 23 length 4494 ft width 110 ft
---- / hdg 230

Location; PAWI
Day. 29 / Time. 08.53 Zulu
* Altimeter: 30.37
* Temperature: 03° c. 37.4°f.
* Wind from: 120° Speed 03 kn.
Dewpoint: -01° c.
Visibility: 4006 m.
Clouds: Clear (automated report).

PAWI 290853Z AUTO 12003KT CLR 03/M01 A3037 RMK SLP284 T00281006 400611011 51003 TSNO VIA AUTODIAL


Wind From 120°
Speed 03 kn.

 
 
jpsmedia worldairports.se 2020   terms of use